createdAt,value
2018-09-03T00:01:33.292Z,4.58
2018-09-03T00:04:04.357Z,5.05
2018-09-03T00:06:35.424Z,5.33
2018-09-03T00:09:10.209Z,5.42
2018-09-03T00:11:41.285Z,4.17
2018-09-03T00:14:12.365Z,5.20
2018-09-03T00:16:43.339Z,5.28
2018-09-03T00:19:14.368Z,5.22
2018-09-03T00:21:45.374Z,6.12
2018-09-03T00:27:00.467Z,6.57
2018-09-03T00:29:31.444Z,5.90
2018-09-03T00:32:07.482Z,6.83
2018-09-03T00:34:43.654Z,6.62
2018-09-03T00:37:19.625Z,6.28
2018-09-03T00:39:55.542Z,6.60
2018-09-03T00:42:31.612Z,6.28
2018-09-03T00:45:07.708Z,6.70
2018-09-03T00:47:38.598Z,6.55
2018-09-03T00:50:09.487Z,6.30
2018-09-03T00:52:40.415Z,6.83
2018-09-03T00:55:11.524Z,6.22
2018-09-03T00:57:42.449Z,7.05
2018-09-03T01:00:13.443Z,6.62
2018-09-03T01:02:44.421Z,7.25
2018-09-03T01:05:15.474Z,7.50
2018-09-03T01:07:46.435Z,7.37
2018-09-03T01:10:17.447Z,6.47
2018-09-03T01:12:48.412Z,6.83
2018-09-03T01:15:19.465Z,7.47
2018-09-03T01:17:50.409Z,7.00
2018-09-03T01:20:21.420Z,7.42
2018-09-03T01:22:52.426Z,7.00
2018-09-03T01:25:23.472Z,6.95
2018-09-03T01:27:54.381Z,7.72
2018-09-03T01:30:25.452Z,7.33
2018-09-03T01:32:56.423Z,7.33
2018-09-03T01:35:27.438Z,6.25
2018-09-03T01:37:58.502Z,7.22
2018-09-03T01:40:29.478Z,7.47
2018-09-03T01:43:00.437Z,7.33
2018-09-03T01:45:31.434Z,7.30
2018-09-03T01:48:02.392Z,7.12
2018-09-03T01:50:33.395Z,7.90
2018-09-03T01:53:04.368Z,8.00
2018-09-03T01:55:35.361Z,8.60
2018-09-03T01:58:06.385Z,7.25
2018-09-03T02:00:37.412Z,6.70
2018-09-03T02:03:08.457Z,7.70
2018-09-03T02:05:39.448Z,8.28
2018-09-03T02:08:10.381Z,8.78
2018-09-03T02:10:41.405Z,8.90
2018-09-03T02:13:12.412Z,9.03
2018-09-03T02:15:43.482Z,8.03
2018-09-03T02:18:14.411Z,7.97
2018-09-03T02:20:45.414Z,8.43
2018-09-03T02:23:16.388Z,8.78
2018-09-03T02:25:47.445Z,8.38
2018-09-03T02:28:18.396Z,8.48
2018-09-03T02:30:49.443Z,9.00
2018-09-03T02:33:20.472Z,7.20
2018-09-03T02:35:51.482Z,8.75
2018-09-03T02:38:22.424Z,9.15
2018-09-03T02:40:53.461Z,8.93
2018-09-03T02:43:24.393Z,9.68
2018-09-03T02:45:55.481Z,8.85
2018-09-03T02:48:26.453Z,9.75
2018-09-03T02:50:57.447Z,7.42
2018-09-03T02:53:28.457Z,9.00
2018-09-03T02:55:59.491Z,8.28
2018-09-03T02:58:30.390Z,6.97
2018-09-03T03:01:01.472Z,8.35
2018-09-03T03:03:32.421Z,9.63
2018-09-03T03:06:03.425Z,9.13
2018-09-03T03:08:34.410Z,9.45
2018-09-03T03:11:46.486Z,9.40
2018-09-03T03:14:17.471Z,9.75
2018-09-03T03:16:48.443Z,9.83
2018-09-03T03:19:19.413Z,9.90
2018-09-03T03:21:50.432Z,10.28
2018-09-03T03:24:21.474Z,10.95
2018-09-03T03:26:52.471Z,10.18
2018-09-03T03:29:23.394Z,10.63
2018-09-03T03:31:54.409Z,10.88
2018-09-03T03:34:25.420Z,10.80
2018-09-03T03:36:56.514Z,10.30
2018-09-03T03:39:27.397Z,10.93
2018-09-03T03:41:58.611Z,10.78
2018-09-03T03:44:29.468Z,10.95
2018-09-03T03:47:01.410Z,11.45
2018-09-03T03:49:32.502Z,10.50
2018-09-03T03:52:03.553Z,11.35
2018-09-03T03:54:34.465Z,11.25
2018-09-03T03:57:05.677Z,11.05
2018-09-03T03:59:36.465Z,11.20
2018-09-03T04:02:07.638Z,11.20
2018-09-03T04:04:38.502Z,11.48
2018-09-03T04:07:09.488Z,11.65
2018-09-03T04:09:40.650Z,11.55
2018-09-03T04:12:11.478Z,11.08
2018-09-03T04:14:42.518Z,10.38
2018-09-03T04:17:13.474Z,11.53
2018-09-03T04:19:48.281Z,11.40
2018-09-03T04:22:19.345Z,11.53
2018-09-03T04:24:50.350Z,11.03
2018-09-03T04:27:21.378Z,10.68
2018-09-03T04:29:52.444Z,11.10
2018-09-03T04:32:23.847Z,10.82
2018-09-03T04:34:54.541Z,12.30
2018-09-03T04:37:25.442Z,11.90
2018-09-03T04:39:56.570Z,11.88
2018-09-03T04:42:27.481Z,11.45
2018-09-03T04:44:58.460Z,12.18
2018-09-03T04:47:29.435Z,11.85
2018-09-03T04:50:00.463Z,10.75
2018-09-03T04:52:31.475Z,9.18
2018-09-03T04:55:02.548Z,11.25
2018-09-03T04:57:33.468Z,11.93
2018-09-03T05:00:05.225Z,11.45
2018-09-03T05:02:36.350Z,11.80
2018-09-03T05:05:07.391Z,11.63
2018-09-03T05:07:38.376Z,10.60
2018-09-03T05:10:09.446Z,11.70
2018-09-03T05:12:40.261Z,12.63
2018-09-03T05:15:11.343Z,10.00
2018-09-03T05:17:42.442Z,11.90
2018-09-03T05:20:13.481Z,11.20
2018-09-03T05:22:44.428Z,10.30
2018-09-03T05:25:15.530Z,12.00
2018-09-03T05:27:46.437Z,12.25
2018-09-03T05:30:17.521Z,13.15
2018-09-03T05:32:48.459Z,12.78
2018-09-03T05:35:19.535Z,10.48
2018-09-03T05:37:50.486Z,12.80
2018-09-03T05:40:21.437Z,11.68
2018-09-03T05:42:52.507Z,12.20
2018-09-03T05:45:23.465Z,12.58
2018-09-03T05:47:54.598Z,10.50
2018-09-03T05:50:25.562Z,12.07
2018-09-03T05:52:56.431Z,13.98
2018-09-03T05:55:27.471Z,13.60
2018-09-03T05:57:58.455Z,11.35
2018-09-03T06:00:29.432Z,14.78
2018-09-03T06:03:00.434Z,14.45
2018-09-03T06:05:31.468Z,14.78
2018-09-03T06:08:02.536Z,14.38
2018-09-03T06:10:33.440Z,11.88
2018-09-03T06:13:04.457Z,14.20
2018-09-03T06:15:35.443Z,13.70
2018-09-03T06:18:06.586Z,13.78
2018-09-03T06:20:37.492Z,13.43
2018-09-03T06:23:08.498Z,11.05
2018-09-03T06:25:39.437Z,13.80
2018-09-03T06:28:10.614Z,13.83
2018-09-03T06:30:41.470Z,13.45
2018-09-03T06:33:12.451Z,14.47
2018-09-03T06:35:43.509Z,14.25
2018-09-03T06:38:14.473Z,14.13
2018-09-03T06:40:45.506Z,11.28
2018-09-03T06:46:02.465Z,13.63
2018-09-03T06:48:33.438Z,13.35
2018-09-03T06:51:04.478Z,14.47
2018-09-03T06:53:35.636Z,13.80
2018-09-03T06:56:06.706Z,14.28
2018-09-03T06:58:37.553Z,14.70
2018-09-03T07:01:08.793Z,14.63
2018-09-03T07:03:40.000Z,14.40
2018-09-03T07:06:11.345Z,15.40
2018-09-03T07:08:42.442Z,12.23
2018-09-03T07:11:13.411Z,15.08
2018-09-03T07:13:44.450Z,14.63
2018-09-03T07:16:15.484Z,14.70
2018-09-03T07:18:46.538Z,16.35
2018-09-03T07:21:17.421Z,15.13
2018-09-03T07:23:48.504Z,14.95
2018-09-03T07:26:19.496Z,15.35
2018-09-03T07:28:50.419Z,12.33
2018-09-03T07:31:21.982Z,14.43
2018-09-03T07:33:53.213Z,14.80
2018-09-03T07:36:24.289Z,11.97
2018-09-03T07:38:55.371Z,15.20
2018-09-03T07:41:26.389Z,14.28
2018-09-03T07:43:57.456Z,14.95
2018-09-03T07:46:28.453Z,15.43
2018-09-03T07:48:59.452Z,14.80
2018-09-03T07:51:30.437Z,15.32
2018-09-03T07:54:01.450Z,15.43
2018-09-03T07:56:32.497Z,16.25
2018-09-03T07:59:03.468Z,15.28
2018-09-03T08:01:34.508Z,15.48
2018-09-03T08:04:05.477Z,14.98
2018-09-03T08:06:36.487Z,15.40
2018-09-03T08:09:11.290Z,16.10
2018-09-03T08:11:42.340Z,14.85
2018-09-03T08:14:13.351Z,13.32
2018-09-03T08:16:44.403Z,15.53
2018-09-03T08:19:15.434Z,16.17
2018-09-03T08:21:46.424Z,15.80
2018-09-03T08:24:17.481Z,14.43
2018-09-03T08:26:48.442Z,16.80
2018-09-03T08:29:19.645Z,17.70
2018-09-03T08:31:50.473Z,14.85
2018-09-03T08:34:21.476Z,18.02
2018-09-03T08:36:52.433Z,16.10
2018-09-03T08:39:24.505Z,19.25
2018-09-03T08:41:55.460Z,18.37
2018-09-03T08:44:26.442Z,15.50
2018-09-03T08:46:57.448Z,18.60
2018-09-03T08:49:28.442Z,17.75
2018-09-03T08:51:59.405Z,18.17
2018-09-03T08:54:30.454Z,15.45
2018-09-03T08:57:01.405Z,17.77
2018-09-03T08:59:32.418Z,18.90
2018-09-03T09:02:03.404Z,14.10
2018-09-03T09:04:34.457Z,17.10
2018-09-03T09:07:05.546Z,14.30
2018-09-03T09:09:36.423Z,17.15
2018-09-03T09:12:07.472Z,17.35
2018-09-03T09:14:38.472Z,17.50
2018-09-03T09:17:09.429Z,14.53
2018-09-03T09:19:40.432Z,17.52
2018-09-03T09:22:11.421Z,16.73
2018-09-03T09:24:42.456Z,13.90
2018-09-03T09:27:13.533Z,16.35
2018-09-03T09:29:44.473Z,13.50
2018-09-03T09:32:15.422Z,15.83
2018-09-03T09:34:46.425Z,13.03
2018-09-03T09:37:17.509Z,14.90
2018-09-03T09:39:48.492Z,13.08
2018-09-03T09:42:19.457Z,15.60
2018-09-03T09:44:50.482Z,12.55
2018-09-03T09:47:21.441Z,15.20
2018-09-03T09:49:53.340Z,11.85
2018-09-03T09:52:24.350Z,15.15
2018-09-03T09:54:55.378Z,12.10
2018-09-03T09:57:26.369Z,14.68
2018-09-03T09:59:57.406Z,11.90
2018-09-03T10:02:28.857Z,13.70
2018-09-03T10:04:59.633Z,11.50
2018-09-03T10:07:30.493Z,14.07
2018-09-03T10:10:01.424Z,11.95
2018-09-03T10:12:33.401Z,13.70
2018-09-03T10:15:04.450Z,11.68
2018-09-03T10:17:35.485Z,14.00
2018-09-03T10:20:07.378Z,11.20
2018-09-03T10:22:38.392Z,11.80
2018-09-03T10:25:09.429Z,13.90
2018-09-03T10:27:40.435Z,11.20
2018-09-03T10:30:11.469Z,11.20
2018-09-03T10:32:42.446Z,13.88
2018-09-03T10:35:13.404Z,11.83
2018-09-03T10:37:44.429Z,13.55
2018-09-03T10:40:15.525Z,10.95
2018-09-03T10:42:46.450Z,14.33
2018-09-03T10:45:17.475Z,11.63
2018-09-03T10:47:48.457Z,14.45
2018-09-03T10:50:19.446Z,10.95
2018-09-03T10:52:50.465Z,13.80
2018-09-03T10:55:21.467Z,12.33
2018-09-03T10:57:52.384Z,11.75
2018-09-03T11:00:23.400Z,14.03
2018-09-03T11:02:54.428Z,11.20
2018-09-03T11:05:25.475Z,11.10
2018-09-03T11:07:56.437Z,14.58
2018-09-03T11:10:27.435Z,11.60
2018-09-03T11:12:58.514Z,14.70
2018-09-03T11:15:29.458Z,12.80
2018-09-03T11:18:00.461Z,14.15
2018-09-03T11:20:31.589Z,11.50
2018-09-03T11:23:02.513Z,13.78
2018-09-03T11:25:34.462Z,11.70
2018-09-03T11:28:05.468Z,14.45
2018-09-03T11:30:36.493Z,11.80
2018-09-03T11:33:07.453Z,14.35
2018-09-03T11:35:38.477Z,13.83
2018-09-03T11:38:09.451Z,13.48
2018-09-03T11:40:40.506Z,15.18
2018-09-03T11:43:11.414Z,13.55
2018-09-03T11:45:51.080Z,16.65
2018-09-03T11:48:26.019Z,14.00
2018-09-03T11:50:59.231Z,14.10
2018-09-03T11:53:32.508Z,15.78
2018-09-03T11:56:05.070Z,13.98
2018-09-03T11:58:36.871Z,16.17
2018-09-03T12:01:14.761Z,13.70
2018-09-03T12:03:50.275Z,16.27
2018-09-03T12:08:59.549Z,15.80
2018-09-03T12:11:35.288Z,13.83
2018-09-03T12:14:16.234Z,17.07
2018-09-03T12:19:35.715Z,16.57
2018-09-03T12:22:14.551Z,13.65
2018-09-03T12:24:48.317Z,16.30
2018-09-03T12:27:20.496Z,13.40
2018-09-03T12:29:55.350Z,16.70
2018-09-03T12:32:27.407Z,13.10
2018-09-03T12:34:58.466Z,14.18
2018-09-03T12:37:30.392Z,16.70
2018-09-03T12:40:02.337Z,13.58
2018-09-03T12:42:39.980Z,12.58
2018-09-03T12:45:19.815Z,16.12
2018-09-03T12:48:00.504Z,13.93
2018-09-03T12:50:37.985Z,15.65
2018-09-03T12:53:10.325Z,14.07
2018-09-03T12:55:44.062Z,13.32
2018-09-03T12:58:25.534Z,16.85
2018-09-03T13:01:00.739Z,13.55
2018-09-03T13:03:39.836Z,17.10
2018-09-03T13:06:15.010Z,12.85
2018-09-03T13:08:51.243Z,16.97
2018-09-03T13:14:21.258Z,15.83
2018-09-03T13:24:45.755Z,15.70
2018-09-03T13:27:19.395Z,13.28
2018-09-03T13:29:51.800Z,15.45
2018-09-03T13:32:26.205Z,12.20
2018-09-03T13:35:00.524Z,15.13
2018-09-03T13:37:33.067Z,13.83
2018-09-03T13:40:07.521Z,15.95
2018-09-03T13:42:38.922Z,14.00
2018-09-03T13:45:09.906Z,15.68
2018-09-03T13:47:41.630Z,12.33
2018-09-03T13:50:12.501Z,14.80
2018-09-03T13:52:43.433Z,11.53
2018-09-03T13:55:15.022Z,11.90
2018-09-03T13:57:46.289Z,20.23
2018-09-03T14:00:17.553Z,11.35
2018-09-03T14:02:48.511Z,11.38
2018-09-03T14:05:19.455Z,13.15
2018-09-03T14:07:50.451Z,10.90
2018-09-03T14:10:21.476Z,13.65
2018-09-03T14:12:52.619Z,10.38
2018-09-03T14:15:23.471Z,12.65
2018-09-03T14:17:54.428Z,10.58
2018-09-03T14:20:25.503Z,13.25
2018-09-03T14:22:56.589Z,10.15
2018-09-03T14:25:27.760Z,12.85
2018-09-03T14:27:58.797Z,10.93
2018-09-03T14:30:30.296Z,11.60
2018-09-03T14:33:01.358Z,9.80
2018-09-03T14:35:32.371Z,12.20
2018-09-03T14:38:03.371Z,9.80
2018-09-03T14:40:34.486Z,12.30
2018-09-03T14:43:05.525Z,9.68
2018-09-03T14:45:36.425Z,11.70
2018-09-03T14:48:07.458Z,9.73
2018-09-03T14:50:38.485Z,11.68
2018-09-03T14:53:09.454Z,9.98
2018-09-03T14:55:40.498Z,11.83
2018-09-03T14:58:15.258Z,9.90
2018-09-03T15:03:20.983Z,10.25
2018-09-03T15:05:52.595Z,11.75
2018-09-03T15:08:24.621Z,10.35
2018-09-03T15:10:57.294Z,12.58
2018-09-03T15:13:33.270Z,9.30
2018-09-03T15:18:44.472Z,9.05
2018-09-03T15:21:20.767Z,11.70
2018-09-03T15:23:55.067Z,9.00
2018-09-03T15:26:26.432Z,12.13
2018-09-03T15:28:57.443Z,9.60
2018-09-03T15:31:28.386Z,12.00
2018-09-03T15:33:59.466Z,10.80
2018-09-03T15:36:30.594Z,11.88
2018-09-03T15:39:01.471Z,10.45
2018-09-03T15:41:32.515Z,13.35
2018-09-03T15:44:03.481Z,9.73
2018-09-03T15:46:34.582Z,12.33
2018-09-03T15:49:05.564Z,9.48
2018-09-03T15:51:36.465Z,12.93
2018-09-03T15:54:07.472Z,9.78
2018-09-03T15:56:38.636Z,11.97
2018-09-03T15:59:09.489Z,9.63
2018-09-03T16:04:24.683Z,9.37
2018-09-03T16:06:55.582Z,12.35
2018-09-03T16:09:41.315Z,9.93
2018-09-03T16:12:20.298Z,12.70
2018-09-03T16:14:53.784Z,10.10
2018-09-03T16:17:29.277Z,12.90
2018-09-03T16:20:02.748Z,10.10
2018-09-03T16:24:53.352Z,10.20
2018-09-03T16:27:24.462Z,10.23
2018-09-03T16:29:55.503Z,12.25
2018-09-03T16:32:26.425Z,10.08
2018-09-03T16:34:57.477Z,9.95
2018-09-03T16:37:28.453Z,12.33
2018-09-03T16:39:59.487Z,9.60
2018-09-03T16:42:30.444Z,10.43
2018-09-03T16:45:01.391Z,9.53
2018-09-03T16:48:18.500Z,9.50
2018-09-03T16:50:49.519Z,11.18
2018-09-03T16:53:20.477Z,8.55
2018-09-03T16:55:51.445Z,8.33
2018-09-03T16:58:22.501Z,10.50
2018-09-03T17:00:53.528Z,7.95
2018-09-03T17:03:24.619Z,10.05
2018-09-03T17:05:55.563Z,7.78
2018-09-03T17:08:26.695Z,9.75
2018-09-03T17:10:57.603Z,7.95
2018-09-03T17:13:28.528Z,10.08
2018-09-03T17:15:59.457Z,60.85
2018-09-03T17:18:30.513Z,9.28
2018-09-03T17:21:07.300Z,8.30
2018-09-03T17:23:38.317Z,9.83
2018-09-03T17:26:19.641Z,8.70
2018-09-03T17:28:55.343Z,10.05
2018-09-03T17:31:27.214Z,8.35
2018-09-03T17:33:58.452Z,8.50
2018-09-03T17:36:29.606Z,10.45
2018-09-03T17:39:00.580Z,8.15
2018-09-03T17:41:31.520Z,10.10
2018-09-03T17:44:02.494Z,7.85
2018-09-03T17:46:33.697Z,8.60
2018-09-03T17:49:04.664Z,10.03
2018-09-03T17:51:35.802Z,8.55
2018-09-03T17:54:06.693Z,11.08
2018-09-03T17:56:40.241Z,8.18
2018-09-03T17:59:11.362Z,11.90
2018-09-03T18:01:42.373Z,8.88
2018-09-03T18:04:13.413Z,10.80
2018-09-03T18:06:44.492Z,8.58
2018-09-03T18:09:15.430Z,11.33
2018-09-03T18:11:46.587Z,8.73
2018-09-03T18:14:17.452Z,10.95
2018-09-03T18:16:48.441Z,9.03
2018-09-03T18:19:19.401Z,10.45
2018-09-03T18:21:50.499Z,8.38
2018-09-03T18:24:21.443Z,10.35
2018-09-03T18:26:52.372Z,7.97
2018-09-03T18:29:23.376Z,9.85
2018-09-03T18:31:54.417Z,8.25
2018-09-03T18:34:25.406Z,10.65
2018-09-03T18:36:56.426Z,8.98
2018-09-03T18:39:27.389Z,9.95
2018-09-03T18:41:58.762Z,8.20
2018-09-03T18:44:29.513Z,11.40
2018-09-03T18:47:00.408Z,8.73
2018-09-03T18:49:31.402Z,12.05
2018-09-03T18:52:02.445Z,9.58
2018-09-03T18:54:33.413Z,12.23
2018-09-03T18:57:04.398Z,9.80
2018-09-03T18:59:35.390Z,11.65
2018-09-03T19:02:06.497Z,12.28
2018-09-03T19:04:37.511Z,12.30
2018-09-03T19:07:08.535Z,11.95
2018-09-03T19:09:39.526Z,10.48
2018-09-03T19:12:11.326Z,13.25
2018-09-03T19:14:42.371Z,10.60
2018-09-03T19:17:13.450Z,13.93
2018-09-03T19:19:44.506Z,11.12
2018-09-03T19:22:15.511Z,15.32
2018-09-03T19:24:46.408Z,12.10
2018-09-03T19:27:17.506Z,15.40
2018-09-03T19:29:48.776Z,16.00
2018-09-03T19:32:19.525Z,13.78
2018-09-03T19:34:50.470Z,17.35
2018-09-03T19:37:21.486Z,14.13
2018-09-03T19:39:52.467Z,17.60
2018-09-03T19:42:23.438Z,17.82
2018-09-03T19:44:54.499Z,17.77
2018-09-03T19:47:25.418Z,14.07
2018-09-03T19:49:56.422Z,28.45
2018-09-03T19:52:27.437Z,22.22
2018-09-03T19:54:58.445Z,19.17
2018-09-03T19:57:29.468Z,16.15
2018-09-03T20:00:00.535Z,20.37
2018-09-03T20:02:31.519Z,19.10
2018-09-03T20:05:02.473Z,16.45
2018-09-03T20:07:33.480Z,19.87
2018-09-03T20:10:04.723Z,20.08
2018-09-03T20:12:35.593Z,20.60
2018-09-03T20:15:08.514Z,16.90
2018-09-03T20:17:39.471Z,19.55
2018-09-03T20:20:10.552Z,17.05
2018-09-03T20:22:41.512Z,20.65
2018-09-03T20:25:12.497Z,21.52
2018-09-03T20:27:43.517Z,21.15
2018-09-03T20:30:14.532Z,21.10
2018-09-03T20:32:45.538Z,21.30
2018-09-03T20:35:16.480Z,22.77
2018-09-03T20:37:47.473Z,18.85
2018-09-03T20:40:18.461Z,23.07
2018-09-03T20:42:49.464Z,24.10
2018-09-03T20:45:20.475Z,18.80
2018-09-03T20:47:51.518Z,24.15
2018-09-03T20:50:22.466Z,18.20
2018-09-03T20:52:53.433Z,23.67
2018-09-03T20:55:24.445Z,19.60
2018-09-03T20:57:55.419Z,24.98
2018-09-03T21:00:26.405Z,26.62
2018-09-03T21:02:57.485Z,26.45
2018-09-03T21:05:28.437Z,25.92
2018-09-03T21:08:00.201Z,22.30
2018-09-03T21:10:31.281Z,25.72
2018-09-03T21:13:02.398Z,23.35
2018-09-03T21:15:33.420Z,27.55
2018-09-03T21:18:52.627Z,25.97
2018-09-03T21:21:23.531Z,28.40
2018-09-03T21:23:54.469Z,23.60
2018-09-03T21:26:25.381Z,32.55
2018-09-03T21:28:56.430Z,29.35
2018-09-03T21:31:27.427Z,24.18
2018-09-03T21:33:58.422Z,30.80
2018-09-03T21:36:29.468Z,24.10
2018-09-03T21:39:00.449Z,28.38
2018-09-03T21:41:31.665Z,30.45
2018-09-03T21:44:02.785Z,24.70
2018-09-03T21:46:33.681Z,30.48
2018-09-03T21:49:04.542Z,28.98
2018-09-03T21:51:35.457Z,23.90
2018-09-03T21:54:06.533Z,29.65
2018-09-03T21:56:37.453Z,29.65
2018-09-03T21:59:08.444Z,30.08
2018-09-03T22:01:39.501Z,28.52
2018-09-03T22:04:10.437Z,29.95
2018-09-03T22:06:41.442Z,23.27
2018-09-03T22:09:12.438Z,29.48
2018-09-03T22:11:43.447Z,30.55
2018-09-03T22:14:14.430Z,29.98
2018-09-03T22:16:45.500Z,28.52
2018-09-03T22:19:16.395Z,28.40
2018-09-03T22:21:47.449Z,28.32
2018-09-03T22:24:18.489Z,28.85
2018-09-03T22:26:49.498Z,28.92
2018-09-03T22:29:20.425Z,24.27
2018-09-03T22:31:51.433Z,29.60
2018-09-03T22:34:22.474Z,28.77
2018-09-03T22:36:53.654Z,28.83
2018-09-03T22:39:24.481Z,24.47
2018-09-03T22:41:55.444Z,28.75
2018-09-03T22:44:26.467Z,29.92
2018-09-03T22:46:57.601Z,30.25
2018-09-03T22:49:29.204Z,29.37
2018-09-03T22:52:00.356Z,29.30
2018-09-03T22:54:31.562Z,29.87
2018-09-03T22:57:02.492Z,28.87
2018-09-03T22:59:33.489Z,30.00
2018-09-03T23:02:04.505Z,30.50
2018-09-03T23:04:35.442Z,31.65
2018-09-03T23:07:06.487Z,30.95
2018-09-03T23:09:37.475Z,25.75
2018-09-03T23:12:08.473Z,30.97
2018-09-03T23:14:39.464Z,25.88
2018-09-03T23:17:10.457Z,32.00
2018-09-03T23:19:41.441Z,31.93
2018-09-03T23:22:12.449Z,26.55
2018-09-03T23:24:43.446Z,30.97
2018-09-03T23:27:14.434Z,31.65
2018-09-03T23:29:45.441Z,32.15
2018-09-03T23:32:16.405Z,33.48
2018-09-03T23:34:47.368Z,35.35
2018-09-03T23:37:18.366Z,33.80
2018-09-03T23:39:49.450Z,33.90
2018-09-03T23:42:20.528Z,33.30
2018-09-03T23:44:51.496Z,27.13
2018-09-03T23:47:22.534Z,34.60
2018-09-03T23:49:53.546Z,33.75
2018-09-03T23:52:24.554Z,27.48
2018-09-03T23:54:55.541Z,34.27
2018-09-03T23:57:26.514Z,27.67
2018-09-03T23:59:57.673Z,33.80
